createdAt,value
2018-06-12T00:00:40.734Z,1000.53
2018-06-12T00:01:40.732Z,1000.54
2018-06-12T00:02:40.734Z,1000.60
2018-06-12T00:03:40.732Z,1000.59
2018-06-12T00:04:40.730Z,1000.59
2018-06-12T00:05:40.729Z,1000.60
2018-06-12T00:06:40.730Z,1000.57
2018-06-12T00:07:40.730Z,1000.61
2018-06-12T00:08:40.727Z,1000.60
2018-06-12T00:09:40.729Z,1000.59
2018-06-12T00:10:40.726Z,1000.55
2018-06-12T00:11:40.728Z,1000.58
2018-06-12T00:12:40.725Z,1000.54
2018-06-12T00:13:40.728Z,1000.54
2018-06-12T00:14:40.726Z,1000.58
2018-06-12T00:15:40.731Z,1000.55
2018-06-12T00:16:40.723Z,1000.56
2018-06-12T00:17:40.724Z,1000.57
2018-06-12T00:18:40.723Z,1000.58
2018-06-12T00:19:40.727Z,1000.60
2018-06-12T00:20:40.724Z,1000.59
2018-06-12T00:21:40.722Z,1000.59
2018-06-12T00:22:40.722Z,1000.61
2018-06-12T00:23:40.721Z,1000.61
2018-06-12T00:24:40.718Z,1000.66
2018-06-12T00:25:40.719Z,1000.66
2018-06-12T00:26:40.719Z,1000.63
2018-06-12T00:27:40.718Z,1000.64
2018-06-12T00:28:40.720Z,1000.60
2018-06-12T00:29:40.717Z,1000.63
2018-06-12T00:30:40.718Z,1000.59
2018-06-12T00:31:40.716Z,1000.58
2018-06-12T00:32:40.715Z,1000.62
2018-06-12T00:33:40.712Z,1000.61
2018-06-12T00:34:40.714Z,1000.63
2018-06-12T00:35:40.714Z,1000.61
2018-06-12T00:36:40.711Z,1000.62
2018-06-12T00:37:40.735Z,1000.60
2018-06-12T00:38:40.710Z,1000.63
2018-06-12T00:39:40.710Z,1000.62
2018-06-12T00:40:40.709Z,1000.59
2018-06-12T00:41:40.708Z,1000.59
2018-06-12T00:42:40.707Z,1000.56
2018-06-12T00:43:40.707Z,1000.57
2018-06-12T00:44:40.707Z,1000.54
2018-06-12T00:45:40.705Z,1000.54
2018-06-12T00:46:40.706Z,1000.54
2018-06-12T00:47:40.706Z,1000.51
2018-06-12T00:48:40.703Z,1000.50
2018-06-12T00:49:40.700Z,1000.52
2018-06-12T00:50:40.703Z,1000.48
2018-06-12T00:51:40.703Z,1000.48
2018-06-12T00:52:40.701Z,1000.50
2018-06-12T00:53:40.700Z,1000.52
2018-06-12T00:54:40.701Z,1000.52
2018-06-12T00:55:40.699Z,1000.54
2018-06-12T00:56:40.698Z,1000.58
2018-06-12T00:57:40.698Z,1000.63
2018-06-12T00:58:40.699Z,1000.62
2018-06-12T00:59:40.696Z,1000.62
2018-06-12T01:00:40.696Z,1000.64
2018-06-12T01:01:40.695Z,1000.66
2018-06-12T01:02:40.695Z,1000.65
2018-06-12T01:03:40.698Z,1000.65
2018-06-12T01:04:40.693Z,1000.68
2018-06-12T01:05:40.695Z,1000.61
2018-06-12T01:06:40.693Z,1000.62
2018-06-12T01:07:40.702Z,1000.66
2018-06-12T01:08:40.693Z,1000.67
2018-06-12T01:09:40.692Z,1000.69
2018-06-12T01:10:40.691Z,1000.74
2018-06-12T01:11:40.695Z,1000.73
2018-06-12T01:12:40.687Z,1000.76
2018-06-12T01:13:40.690Z,1000.81
2018-06-12T01:14:40.689Z,1000.78
2018-06-12T01:15:40.688Z,1000.84
2018-06-12T01:16:40.687Z,1000.78
2018-06-12T01:17:40.687Z,1000.80
2018-06-12T01:18:40.688Z,1000.83
2018-06-12T01:19:40.690Z,1000.82
2018-06-12T01:20:40.687Z,1000.83
2018-06-12T01:21:40.687Z,1000.85
2018-06-12T01:22:40.689Z,1000.87
2018-06-12T01:23:40.686Z,1000.88
2018-06-12T01:24:40.686Z,1000.85
2018-06-12T01:25:40.685Z,1000.89
2018-06-12T01:26:40.686Z,1000.89
2018-06-12T01:27:40.684Z,1000.88
2018-06-12T01:28:40.688Z,1000.90
2018-06-12T01:29:40.685Z,1000.89
2018-06-12T01:30:40.685Z,1000.89
2018-06-12T01:31:40.683Z,1000.87
2018-06-12T01:32:40.680Z,1000.86
2018-06-12T01:33:40.681Z,1000.84
2018-06-12T01:34:40.681Z,1000.86
2018-06-12T01:35:40.680Z,1000.87
2018-06-12T01:36:40.682Z,1000.91
2018-06-12T01:37:40.683Z,1000.89
2018-06-12T01:38:40.680Z,1000.92
2018-06-12T01:39:40.679Z,1000.88
2018-06-12T01:40:40.678Z,1000.91
2018-06-12T01:41:40.676Z,1000.88
2018-06-12T01:42:40.676Z,1000.91
2018-06-12T01:43:40.679Z,1000.94
2018-06-12T01:44:40.677Z,1000.92
2018-06-12T01:45:40.676Z,1000.86
2018-06-12T01:46:40.675Z,1000.89
2018-06-12T01:47:40.677Z,1000.84
2018-06-12T01:48:40.685Z,1000.82
2018-06-12T01:49:40.674Z,1000.89
2018-06-12T01:50:40.677Z,1000.90
2018-06-12T01:51:40.674Z,1000.81
2018-06-12T01:52:40.679Z,1000.78
2018-06-12T01:53:40.676Z,1000.79
2018-06-12T01:54:40.673Z,1000.78
2018-06-12T01:55:40.675Z,1000.80
2018-06-12T01:56:40.671Z,1000.80
2018-06-12T01:57:40.671Z,1000.81
2018-06-12T01:58:40.672Z,1000.81
2018-06-12T01:59:40.682Z,1000.81
2018-06-12T02:00:40.668Z,1000.74
2018-06-12T02:01:40.669Z,1000.80
2018-06-12T02:02:40.669Z,1000.75
2018-06-12T02:03:40.668Z,1000.74
2018-06-12T02:04:40.672Z,1000.77
2018-06-12T02:05:40.670Z,1000.71
2018-06-12T02:06:40.669Z,1000.72
2018-06-12T02:07:40.666Z,1000.70
2018-06-12T02:08:40.667Z,1000.70
2018-06-12T02:09:40.666Z,1000.67
2018-06-12T02:10:40.667Z,1000.68
2018-06-12T02:11:40.666Z,1000.70
2018-06-12T02:12:40.664Z,1000.68
2018-06-12T02:13:40.667Z,1000.63
2018-06-12T02:14:40.664Z,1000.61
2018-06-12T02:15:40.670Z,1000.64
2018-06-12T02:16:40.662Z,1000.64
2018-06-12T02:17:40.662Z,1000.63
2018-06-12T02:18:40.662Z,1000.64
2018-06-12T02:19:40.667Z,1000.67
2018-06-12T02:20:40.661Z,1000.67
2018-06-12T02:21:40.659Z,1000.67
2018-06-12T02:22:40.659Z,1000.65
2018-06-12T02:23:40.657Z,1000.70
2018-06-12T02:24:40.658Z,1000.65
2018-06-12T02:25:40.657Z,1000.62
2018-06-12T02:26:40.658Z,1000.64
2018-06-12T02:27:40.656Z,1000.61
2018-06-12T02:28:40.656Z,1000.58
2018-06-12T02:29:40.657Z,1000.58
2018-06-12T02:30:40.655Z,1000.55
2018-06-12T02:31:40.658Z,1000.54
2018-06-12T02:32:40.654Z,1000.52
2018-06-12T02:33:40.654Z,1000.51
2018-06-12T02:34:40.653Z,1000.52
2018-06-12T02:35:40.652Z,1000.49
2018-06-12T02:36:40.655Z,1000.49
2018-06-12T02:37:40.649Z,1000.46
2018-06-12T02:38:40.649Z,1000.44
2018-06-12T02:39:40.650Z,1000.44
2018-06-12T02:40:40.648Z,1000.46
2018-06-12T02:41:40.647Z,1000.42
2018-06-12T02:42:40.650Z,1000.47
2018-06-12T02:43:40.647Z,1000.50
2018-06-12T02:44:40.689Z,1000.55
2018-06-12T02:45:40.643Z,1000.52
2018-06-12T02:46:40.645Z,1000.54
2018-06-12T02:47:40.645Z,1000.54
2018-06-12T02:48:40.643Z,1000.56
2018-06-12T02:49:40.643Z,1000.61
2018-06-12T02:50:40.640Z,1000.58
2018-06-12T02:51:40.642Z,1000.60
2018-06-12T02:52:40.642Z,1000.63
2018-06-12T02:53:40.639Z,1000.66
2018-06-12T02:54:40.644Z,1000.68
2018-06-12T02:55:40.637Z,1000.70
2018-06-12T02:56:40.642Z,1000.73
2018-06-12T02:57:40.637Z,1000.72
2018-06-12T02:58:40.638Z,1000.73
2018-06-12T02:59:40.638Z,1000.71
2018-06-12T03:00:40.636Z,1000.68
2018-06-12T03:01:40.636Z,1000.73
2018-06-12T03:02:40.636Z,1000.66
2018-06-12T03:03:40.635Z,1000.66
2018-06-12T03:04:40.634Z,1000.66
2018-06-12T03:05:40.635Z,1000.68
2018-06-12T03:06:40.633Z,1000.70
2018-06-12T03:07:40.634Z,1000.70
2018-06-12T03:08:40.633Z,1000.68
2018-06-12T03:09:40.630Z,1000.65
2018-06-12T03:10:40.632Z,1000.62
2018-06-12T03:11:40.635Z,1000.64
2018-06-12T03:12:40.634Z,1000.65
2018-06-12T03:13:40.628Z,1000.63
2018-06-12T03:14:40.636Z,1000.63
2018-06-12T03:15:40.628Z,1000.60
2018-06-12T03:16:40.626Z,1000.58
2018-06-12T03:17:40.625Z,1000.54
2018-06-12T03:18:40.627Z,1000.53
2018-06-12T03:19:40.623Z,1000.56
2018-06-12T03:20:40.622Z,1000.54
2018-06-12T03:21:40.622Z,1000.54
2018-06-12T03:22:40.621Z,1000.49
2018-06-12T03:23:40.620Z,1000.50
2018-06-12T03:24:40.621Z,1000.57
2018-06-12T03:25:40.617Z,1000.48
2018-06-12T03:26:40.618Z,1000.55
2018-06-12T03:27:40.615Z,1000.56
2018-06-12T03:28:40.617Z,1000.53
2018-06-12T03:29:40.614Z,1000.53
2018-06-12T03:30:40.613Z,1000.50
2018-06-12T03:31:40.612Z,1000.53
2018-06-12T03:32:40.610Z,1000.52
2018-06-12T03:33:40.609Z,1000.48
2018-06-12T03:34:40.609Z,1000.49
2018-06-12T03:35:40.609Z,1000.50
2018-06-12T03:36:40.609Z,1000.49
2018-06-12T03:37:40.606Z,1000.50
2018-06-12T03:38:40.605Z,1000.52
2018-06-12T03:39:40.605Z,1000.56
2018-06-12T03:40:40.605Z,1000.54
2018-06-12T03:41:40.604Z,1000.57
2018-06-12T03:42:40.602Z,1000.54
2018-06-12T03:43:40.598Z,1000.52
2018-06-12T03:44:40.600Z,1000.53
2018-06-12T03:45:40.599Z,1000.52
2018-06-12T03:46:40.600Z,1000.52
2018-06-12T03:47:40.598Z,1000.52
2018-06-12T03:48:40.596Z,1000.55
2018-06-12T03:49:40.598Z,1000.58
2018-06-12T03:50:40.596Z,1000.57
2018-06-12T03:51:40.594Z,1000.64
2018-06-12T03:52:40.598Z,1000.61
2018-06-12T03:53:40.591Z,1000.65
2018-06-12T03:54:40.588Z,1000.67
2018-06-12T03:55:40.592Z,1000.67
2018-06-12T03:56:40.597Z,1000.68
2018-06-12T03:57:40.587Z,1000.69
2018-06-12T03:58:40.589Z,1000.72
2018-06-12T03:59:40.586Z,1000.75
2018-06-12T04:00:40.585Z,1000.74
2018-06-12T04:01:40.584Z,1000.77
2018-06-12T04:02:40.582Z,1000.75
2018-06-12T04:03:40.582Z,1000.76
2018-06-12T04:04:40.582Z,1000.78
2018-06-12T04:05:40.581Z,1000.78
2018-06-12T04:06:40.584Z,1000.77
2018-06-12T04:07:40.590Z,1000.82
2018-06-12T04:08:40.579Z,1000.78
2018-06-12T04:09:40.580Z,1000.82
2018-06-12T04:10:40.635Z,1000.80
2018-06-12T04:11:40.576Z,1000.79
2018-06-12T04:12:40.575Z,1000.80
2018-06-12T04:13:40.573Z,1000.79
2018-06-12T04:14:40.573Z,1000.77
2018-06-12T04:15:40.573Z,1000.75
2018-06-12T04:16:40.570Z,1000.80
2018-06-12T04:17:40.570Z,1000.83
2018-06-12T04:18:40.570Z,1000.83
2018-06-12T04:19:40.571Z,1000.83
2018-06-12T04:20:40.568Z,1000.84
2018-06-12T04:21:40.568Z,1000.83
2018-06-12T04:22:40.570Z,1000.81
2018-06-12T04:23:40.578Z,1000.82
2018-06-12T04:24:40.564Z,1000.83
2018-06-12T04:25:40.564Z,1000.84
2018-06-12T04:26:40.564Z,1000.82
2018-06-12T04:27:40.562Z,1000.84
2018-06-12T04:28:40.558Z,1000.84
2018-06-12T04:29:40.563Z,1000.84
2018-06-12T04:30:40.670Z,1000.81
2018-06-12T04:31:40.556Z,1000.84
2018-06-12T04:32:40.560Z,1000.84
2018-06-12T04:33:40.556Z,1000.83
2018-06-12T04:34:40.557Z,1000.79
2018-06-12T04:35:40.554Z,1000.84
2018-06-12T04:36:40.554Z,1000.81
2018-06-12T04:37:40.554Z,1000.80
2018-06-12T04:38:40.551Z,1000.80
2018-06-12T04:39:40.550Z,1000.84
2018-06-12T04:40:40.553Z,1000.81
2018-06-12T04:41:40.548Z,1000.85
2018-06-12T04:42:40.546Z,1000.83
2018-06-12T04:43:40.545Z,1000.83
2018-06-12T04:44:40.545Z,1000.80
2018-06-12T04:45:40.544Z,1000.82
2018-06-12T04:46:40.544Z,1000.84
2018-06-12T04:47:40.541Z,1000.83
2018-06-12T04:48:40.540Z,1000.83
2018-06-12T04:49:40.538Z,1000.86
2018-06-12T04:50:40.540Z,1000.84
2018-06-12T04:51:40.537Z,1000.85
2018-06-12T04:52:40.534Z,1000.86
2018-06-12T04:53:40.533Z,1000.89
2018-06-12T04:54:40.592Z,1000.84
2018-06-12T04:55:40.533Z,1000.87
2018-06-12T04:56:40.529Z,1000.89
2018-06-12T04:57:40.528Z,1000.88
2018-06-12T04:58:40.529Z,1000.90
2018-06-12T04:59:40.526Z,1000.92
2018-06-12T05:00:40.524Z,1000.96
2018-06-12T05:01:40.533Z,1000.94
2018-06-12T05:02:40.523Z,1000.93
2018-06-12T05:03:40.527Z,1000.96
2018-06-12T05:04:40.520Z,1000.90
2018-06-12T05:05:40.523Z,1000.93
2018-06-12T05:06:40.518Z,1000.93
2018-06-12T05:07:40.524Z,1000.94
2018-06-12T05:08:40.517Z,1000.95
2018-06-12T05:09:40.515Z,1000.94
2018-06-12T05:10:40.514Z,1000.88
2018-06-12T05:11:40.512Z,1000.91
2018-06-12T05:12:40.512Z,1000.92
2018-06-12T05:13:40.510Z,1000.98
2018-06-12T05:14:40.507Z,1000.94
2018-06-12T05:15:40.511Z,1000.95
2018-06-12T05:16:40.505Z,1000.98
2018-06-12T05:17:40.504Z,1000.94
2018-06-12T05:18:40.502Z,1000.99
2018-06-12T05:19:40.523Z,1001.01
2018-06-12T05:20:40.500Z,1001.05
2018-06-12T05:21:40.501Z,1001.05
2018-06-12T05:22:40.498Z,1001.01
2018-06-12T05:23:40.496Z,1001.02
2018-06-12T05:24:40.494Z,1001.07
2018-06-12T05:25:40.496Z,1001.05
2018-06-12T05:26:40.493Z,1001.08
2018-06-12T05:27:40.491Z,1001.10
2018-06-12T05:28:40.491Z,1001.12
2018-06-12T05:29:40.487Z,1001.17
2018-06-12T05:30:40.485Z,1001.14
2018-06-12T05:31:40.484Z,1001.17
2018-06-12T05:32:40.484Z,1001.16
2018-06-12T05:33:40.483Z,1001.17
2018-06-12T05:34:40.480Z,1001.20
2018-06-12T05:35:40.481Z,1001.16
2018-06-12T05:36:40.477Z,1001.16
2018-06-12T05:37:40.479Z,1001.20
2018-06-12T05:38:40.475Z,1001.18
2018-06-12T05:39:40.476Z,1001.21
2018-06-12T05:40:40.472Z,1001.22
2018-06-12T05:41:40.472Z,1001.22
2018-06-12T05:42:40.479Z,1001.23
2018-06-12T05:43:40.472Z,1001.23
2018-06-12T05:44:40.468Z,1001.24
2018-06-12T05:45:40.469Z,1001.27
2018-06-12T05:46:40.466Z,1001.27
2018-06-12T05:47:40.466Z,1001.22
2018-06-12T05:48:40.465Z,1001.23
2018-06-12T05:49:40.464Z,1001.18
2018-06-12T05:50:40.463Z,1001.22
2018-06-12T05:51:40.461Z,1001.21
2018-06-12T05:52:40.459Z,1001.23
2018-06-12T05:53:40.485Z,1001.23
2018-06-12T05:54:40.457Z,1001.23
2018-06-12T05:55:40.515Z,1001.24
2018-06-12T05:56:40.454Z,1001.28
2018-06-12T05:57:40.455Z,1001.29
2018-06-12T05:58:40.457Z,1001.26
2018-06-12T05:59:40.451Z,1001.29
2018-06-12T06:00:40.449Z,1001.28
2018-06-12T06:01:40.454Z,1001.31
2018-06-12T06:02:40.449Z,1001.26
2018-06-12T06:03:40.447Z,1001.31
2018-06-12T06:04:40.444Z,1001.31
2018-06-12T06:05:40.449Z,1001.35
2018-06-12T06:06:40.445Z,1001.33
2018-06-12T06:07:40.440Z,1001.39
2018-06-12T06:08:40.443Z,1001.35
2018-06-12T06:09:40.438Z,1001.40
2018-06-12T06:10:40.449Z,1001.45
2018-06-12T06:11:40.436Z,1001.42
2018-06-12T06:12:40.435Z,1001.41
2018-06-12T06:13:40.432Z,1001.44
2018-06-12T06:14:40.433Z,1001.42
2018-06-12T06:15:40.432Z,1001.43
2018-06-12T06:16:40.431Z,1001.42
2018-06-12T06:17:40.430Z,1001.41
2018-06-12T06:18:40.428Z,1001.44
2018-06-12T06:19:40.428Z,1001.46
2018-06-12T06:20:40.424Z,1001.45
2018-06-12T06:21:40.424Z,1001.45
2018-06-12T06:22:40.436Z,1001.45
2018-06-12T06:23:40.427Z,1001.46
2018-06-12T06:24:40.421Z,1001.47
2018-06-12T06:25:40.419Z,1001.49
2018-06-12T06:26:40.416Z,1001.54
2018-06-12T06:27:40.416Z,1001.51
2018-06-12T06:28:40.415Z,1001.55
2018-06-12T06:29:40.445Z,1001.54
2018-06-12T06:30:40.414Z,1001.52
2018-06-12T06:31:40.411Z,1001.53
2018-06-12T06:32:40.410Z,1001.51
2018-06-12T06:33:40.406Z,1001.52
2018-06-12T06:34:40.407Z,1001.52
2018-06-12T06:35:40.406Z,1001.53
2018-06-12T06:36:40.405Z,1001.53
2018-06-12T06:37:40.407Z,1001.50
2018-06-12T06:38:40.401Z,1001.52
2018-06-12T06:39:40.401Z,1001.51
2018-06-12T06:40:40.398Z,1001.53
2018-06-12T06:41:40.400Z,1001.50
2018-06-12T06:42:40.398Z,1001.53
2018-06-12T06:43:40.398Z,1001.54
2018-06-12T06:44:40.395Z,1001.55
2018-06-12T06:45:40.395Z,1001.55
2018-06-12T06:46:40.392Z,1001.51
2018-06-12T06:47:40.390Z,1001.54
2018-06-12T06:48:40.389Z,1001.52
2018-06-12T06:49:40.391Z,1001.51
2018-06-12T06:50:40.386Z,1001.52
2018-06-12T06:51:40.384Z,1001.54
2018-06-12T06:52:40.384Z,1001.53
2018-06-12T06:53:40.392Z,1001.57
2018-06-12T06:54:40.381Z,1001.57
2018-06-12T06:55:40.381Z,1001.55
2018-06-12T06:56:40.383Z,1001.58
2018-06-12T06:57:40.379Z,1001.54
2018-06-12T06:58:40.375Z,1001.54
2018-06-12T06:59:40.375Z,1001.58
2018-06-12T07:00:40.371Z,1001.57
2018-06-12T07:01:40.371Z,1001.60
2018-06-12T07:02:40.366Z,1001.60
2018-06-12T07:03:40.365Z,1001.58
2018-06-12T07:04:40.366Z,1001.55
2018-06-12T07:05:40.364Z,1001.57
2018-06-12T07:06:40.362Z,1001.56
2018-06-12T07:07:40.360Z,1001.60
2018-06-12T07:08:40.357Z,1001.62
2018-06-12T07:09:40.356Z,1001.64
2018-06-12T07:10:40.354Z,1001.55
2018-06-12T07:11:40.355Z,1001.64
2018-06-12T07:12:40.351Z,1001.64
2018-06-12T07:13:40.353Z,1001.65
2018-06-12T07:14:40.350Z,1001.69
2018-06-12T07:15:40.348Z,1001.69
2018-06-12T07:16:40.348Z,1001.71
2018-06-12T07:17:40.344Z,1001.66
2018-06-12T07:18:40.345Z,1001.69
2018-06-12T07:19:40.342Z,1001.69
2018-06-12T07:20:40.344Z,1001.69
2018-06-12T07:21:40.339Z,1001.72
2018-06-12T07:22:40.339Z,1001.68
2018-06-12T07:23:40.336Z,1001.67
2018-06-12T07:24:40.334Z,1001.67
2018-06-12T07:25:40.333Z,1001.68
2018-06-12T07:26:40.333Z,1001.67
2018-06-12T07:27:40.331Z,1001.71
2018-06-12T07:28:40.327Z,1001.66
2018-06-12T07:29:40.331Z,1001.66
2018-06-12T07:30:40.324Z,1001.64
2018-06-12T07:31:40.324Z,1001.66
2018-06-12T07:32:40.322Z,1001.66
2018-06-12T07:33:40.322Z,1001.65
2018-06-12T07:34:40.322Z,1001.67
2018-06-12T07:35:40.317Z,1001.70
2018-06-12T07:36:40.316Z,1001.71
2018-06-12T07:37:40.386Z,1001.70
2018-06-12T07:38:40.312Z,1001.65
2018-06-12T07:39:40.311Z,1001.68
2018-06-12T07:40:40.310Z,1001.68
2018-06-12T07:41:40.306Z,1001.67
2018-06-12T07:42:40.305Z,1001.70
2018-06-12T07:43:40.304Z,1001.72
2018-06-12T07:44:40.303Z,1001.70
2018-06-12T07:45:40.299Z,1001.71
2018-06-12T07:46:40.299Z,1001.70
2018-06-12T07:47:40.296Z,1001.66
2018-06-12T07:48:40.294Z,1001.63
2018-06-12T07:49:40.291Z,1001.64
2018-06-12T07:50:40.299Z,1001.64
2018-06-12T07:51:40.289Z,1001.67
2018-06-12T07:52:40.286Z,1001.66
2018-06-12T07:53:40.284Z,1001.67
2018-06-12T07:54:40.285Z,1001.61
2018-06-12T07:55:40.285Z,1001.64
2018-06-12T07:56:40.280Z,1001.66
2018-06-12T07:57:40.276Z,1001.71
2018-06-12T07:58:40.272Z,1001.71
2018-06-12T07:59:40.273Z,1001.76
2018-06-12T08:00:40.288Z,1001.69
2018-06-12T08:01:40.270Z,1001.70
2018-06-12T08:02:40.269Z,1001.67
2018-06-12T08:03:40.268Z,1001.70
2018-06-12T08:04:40.263Z,1001.67
2018-06-12T08:05:40.261Z,1001.71
2018-06-12T08:06:40.264Z,1001.76
2018-06-12T08:07:40.261Z,1001.73
2018-06-12T08:08:40.258Z,1001.76
2018-06-12T08:09:40.255Z,1001.74
2018-06-12T08:10:40.252Z,1001.74
2018-06-12T08:11:40.253Z,1001.80
2018-06-12T08:12:40.252Z,1001.79
2018-06-12T08:13:40.248Z,1001.75
2018-06-12T08:14:40.247Z,1001.78
2018-06-12T08:15:40.246Z,1001.81
2018-06-12T08:16:40.242Z,1001.78
2018-06-12T08:17:40.242Z,1001.82
2018-06-12T08:18:40.254Z,1001.79
2018-06-12T08:19:40.239Z,1001.83
2018-06-12T08:20:40.235Z,1001.82
2018-06-12T08:21:40.233Z,1001.81
2018-06-12T08:22:40.232Z,1001.84
2018-06-12T08:23:40.234Z,1001.83
2018-06-12T08:24:40.234Z,1001.82
2018-06-12T08:25:40.230Z,1001.82
2018-06-12T08:26:40.226Z,1001.84
2018-06-12T08:27:40.225Z,1001.83
2018-06-12T08:28:40.222Z,1001.82
2018-06-12T08:29:40.304Z,1001.86
2018-06-12T08:30:40.226Z,1001.86
2018-06-12T08:31:40.219Z,1001.85
2018-06-12T08:32:40.216Z,1001.83
2018-06-12T08:33:40.217Z,1001.90
2018-06-12T08:34:40.212Z,1001.90
2018-06-12T08:35:40.262Z,1001.88
2018-06-12T08:36:40.208Z,1001.87
2018-06-12T08:37:40.209Z,1001.87
2018-06-12T08:38:40.211Z,1001.92
2018-06-12T08:39:40.205Z,1001.93
2018-06-12T08:40:40.207Z,1001.90
2018-06-12T08:41:40.204Z,1001.90
2018-06-12T08:42:40.205Z,1001.92
2018-06-12T08:43:40.198Z,1001.89
2018-06-12T08:44:40.198Z,1001.94
2018-06-12T08:45:40.197Z,1001.95
2018-06-12T08:46:40.197Z,1001.91
2018-06-12T08:47:40.194Z,1001.89
2018-06-12T08:48:40.191Z,1001.87
2018-06-12T08:49:40.191Z,1001.93
2018-06-12T08:50:40.189Z,1001.93
2018-06-12T08:51:40.186Z,1001.96
2018-06-12T08:52:40.187Z,1001.99
2018-06-12T08:53:40.184Z,1001.92
2018-06-12T08:54:40.182Z,1001.98
2018-06-12T08:55:40.180Z,1001.92
2018-06-12T08:56:40.179Z,1001.97
2018-06-12T08:57:40.177Z,1001.90
2018-06-12T08:58:40.173Z,1001.93
2018-06-12T08:59:40.173Z,1001.94
2018-06-12T09:00:40.173Z,1001.89
2018-06-12T09:01:40.173Z,1001.95
2018-06-12T09:02:40.208Z,1001.91
2018-06-12T09:03:40.169Z,1001.91
2018-06-12T09:04:40.165Z,1001.94
2018-06-12T09:05:40.163Z,1001.92
2018-06-12T09:06:40.163Z,1001.92
2018-06-12T09:07:40.159Z,1001.93
2018-06-12T09:08:40.164Z,1001.99
2018-06-12T09:09:40.158Z,1001.95
2018-06-12T09:10:40.156Z,1001.97
2018-06-12T09:11:40.160Z,1001.97
2018-06-12T09:12:40.153Z,1002.01
2018-06-12T09:13:40.154Z,1001.99
2018-06-12T09:14:40.151Z,1002.04
2018-06-12T09:15:40.150Z,1002.03
2018-06-12T09:16:40.150Z,1002.05
2018-06-12T09:17:40.147Z,1002.04
2018-06-12T09:18:40.155Z,1002.02
2018-06-12T09:19:40.146Z,1002.04
2018-06-12T09:20:40.145Z,1002.07
2018-06-12T09:21:40.143Z,1002.08
2018-06-12T09:22:40.143Z,1002.06
2018-06-12T09:23:40.140Z,1002.12
2018-06-12T09:24:40.136Z,1002.08
2018-06-12T09:25:40.137Z,1002.07
2018-06-12T09:26:40.136Z,1002.11
2018-06-12T09:27:40.134Z,1002.13
2018-06-12T09:28:40.131Z,1002.15
2018-06-12T09:29:40.133Z,1002.14
2018-06-12T09:30:40.131Z,1002.20
2018-06-12T09:31:40.128Z,1002.25
2018-06-12T09:32:40.129Z,1002.23
2018-06-12T09:33:40.126Z,1002.27
2018-06-12T09:34:40.126Z,1002.28
2018-06-12T09:35:40.124Z,1002.33
2018-06-12T09:36:40.123Z,1002.33
2018-06-12T09:37:40.122Z,1002.34
2018-06-12T09:38:40.124Z,1002.37
2018-06-12T09:39:40.122Z,1002.40
2018-06-12T09:40:40.119Z,1002.38
2018-06-12T09:41:40.117Z,1002.44
2018-06-12T09:42:40.116Z,1002.42
2018-06-12T09:43:40.114Z,1002.37
2018-06-12T09:44:40.113Z,1002.37
2018-06-12T09:45:40.111Z,1002.35
2018-06-12T09:46:40.110Z,1002.34
2018-06-12T09:47:40.111Z,1002.32
2018-06-12T09:48:40.106Z,1002.36
2018-06-12T09:49:40.105Z,1002.36
2018-06-12T09:50:40.104Z,1002.38
2018-06-12T09:51:40.107Z,1002.40
2018-06-12T09:52:40.103Z,1002.40
2018-06-12T09:53:40.101Z,1002.38
2018-06-12T09:54:40.100Z,1002.40
2018-06-12T09:55:40.102Z,1002.39
2018-06-12T09:56:40.096Z,1002.44
2018-06-12T09:57:40.150Z,1002.44
2018-06-12T09:58:40.096Z,1002.46
2018-06-12T09:59:40.097Z,1002.45
2018-06-12T10:00:40.093Z,1002.49
2018-06-12T10:01:40.092Z,1002.47
2018-06-12T10:02:40.092Z,1002.47
2018-06-12T10:03:40.091Z,1002.46
2018-06-12T10:04:40.089Z,1002.49
2018-06-12T10:05:40.089Z,1002.48
2018-06-12T10:06:40.092Z,1002.49
2018-06-12T10:07:40.087Z,1002.48
2018-06-12T10:08:40.084Z,1002.48
2018-06-12T10:09:40.087Z,1002.52
2018-06-12T10:10:40.083Z,1002.59
2018-06-12T10:11:40.087Z,1002.56
2018-06-12T10:12:40.084Z,1002.56
2018-06-12T10:13:40.081Z,1002.56
2018-06-12T10:14:40.080Z,1002.53
2018-06-12T10:15:40.079Z,1002.56
2018-06-12T10:16:40.077Z,1002.47
2018-06-12T10:17:40.076Z,1002.41
2018-06-12T10:18:40.075Z,1002.31
2018-06-12T10:19:40.071Z,1002.24
2018-06-12T10:20:40.072Z,1002.16
2018-06-12T10:21:40.070Z,1002.13
2018-06-12T10:22:40.071Z,1002.15
2018-06-12T10:23:40.074Z,1002.12
2018-06-12T10:24:40.067Z,1002.14
2018-06-12T10:25:40.067Z,1002.22
2018-06-12T10:26:40.074Z,1002.22
2018-06-12T10:27:40.065Z,1002.26
2018-06-12T10:28:40.062Z,1002.26
2018-06-12T10:29:40.061Z,1002.32
2018-06-12T10:30:40.061Z,1002.33
2018-06-12T10:31:40.060Z,1002.33
2018-06-12T10:32:40.059Z,1002.34
2018-06-12T10:33:40.058Z,1002.33
2018-06-12T10:34:40.058Z,1002.26
2018-06-12T10:35:40.061Z,1002.19
2018-06-12T10:36:40.058Z,1002.18
2018-06-12T10:37:40.055Z,1002.19
2018-06-12T10:38:40.057Z,1002.20
2018-06-12T10:39:40.055Z,1002.16
2018-06-12T10:40:40.056Z,1002.19
2018-06-12T10:41:40.053Z,1002.20
2018-06-12T10:42:40.053Z,1002.14
2018-06-12T10:43:40.061Z,1002.19
2018-06-12T10:44:40.054Z,1002.14
2018-06-12T10:45:40.049Z,1002.12
2018-06-12T10:46:40.050Z,1002.08
2018-06-12T10:47:40.048Z,1002.07
2018-06-12T10:48:40.047Z,1002.01
2018-06-12T10:49:40.048Z,1002.05
2018-06-12T10:50:40.047Z,1002.05
2018-06-12T10:51:40.047Z,1002.08
2018-06-12T10:52:40.044Z,1002.07
2018-06-12T10:53:40.047Z,1002.06
2018-06-12T10:54:40.044Z,1002.00
2018-06-12T10:55:40.043Z,1002.04
2018-06-12T10:56:40.042Z,1002.07
2018-06-12T10:57:40.044Z,1002.04
2018-06-12T10:58:40.044Z,1002.07
2018-06-12T10:59:40.038Z,1002.10
2018-06-12T11:00:40.040Z,1002.07
2018-06-12T11:01:40.040Z,1002.08
2018-06-12T11:02:40.039Z,1002.06
2018-06-12T11:03:40.058Z,1002.06
2018-06-12T11:04:40.045Z,1002.04
2018-06-12T11:05:40.041Z,1002.07
2018-06-12T11:06:40.035Z,1002.01
2018-06-12T11:07:40.036Z,1002.05
2018-06-12T11:08:40.035Z,1002.01
2018-06-12T11:09:40.035Z,1002.04
2018-06-12T11:10:40.034Z,1002.02
2018-06-12T11:11:40.035Z,1002.00
2018-06-12T11:12:40.032Z,1001.98
2018-06-12T11:13:40.032Z,1001.97
2018-06-12T11:14:40.035Z,1001.97
2018-06-12T11:15:40.032Z,1001.99
2018-06-12T11:16:40.031Z,1002.03
2018-06-12T11:17:40.032Z,1002.07
2018-06-12T11:18:40.031Z,1002.05
2018-06-12T11:19:40.031Z,1002.11
2018-06-12T11:20:40.081Z,1002.03
2018-06-12T11:21:40.029Z,1002.07
2018-06-12T11:22:40.029Z,1002.07
2018-06-12T11:23:40.026Z,1002.05
2018-06-12T11:24:40.027Z,1002.06
2018-06-12T11:25:40.025Z,1002.02
2018-06-12T11:26:40.038Z,1002.05
2018-06-12T11:27:40.027Z,1002.01
2018-06-12T11:28:40.019Z,1002.02
2018-06-12T11:29:40.027Z,1002.03
2018-06-12T11:30:40.022Z,1002.05
2018-06-12T11:31:40.023Z,1002.06
2018-06-12T11:32:40.022Z,1002.05
2018-06-12T11:33:40.022Z,1002.07
2018-06-12T11:34:40.024Z,1002.06
2018-06-12T11:35:40.021Z,1002.06
2018-06-12T11:36:40.020Z,1002.09
2018-06-12T11:37:40.021Z,1002.06
2018-06-12T11:38:40.029Z,1002.08
2018-06-12T11:39:40.020Z,1002.04
2018-06-12T11:40:40.021Z,1002.06
2018-06-12T11:41:40.018Z,1002.04
2018-06-12T11:42:40.019Z,1002.04
2018-06-12T11:43:40.019Z,1002.06
2018-06-12T11:44:40.018Z,1002.01
2018-06-12T11:45:40.017Z,1002.01
2018-06-12T11:46:40.018Z,1001.93
2018-06-12T11:47:40.019Z,1001.99
2018-06-12T11:48:40.018Z,1002.01
2018-06-12T11:49:40.018Z,1001.97
2018-06-12T11:50:40.022Z,1001.98
2018-06-12T11:51:40.018Z,1001.97
2018-06-12T11:52:40.029Z,1001.96
2018-06-12T11:53:40.021Z,1001.94
2018-06-12T11:54:40.025Z,1001.98
2018-06-12T11:55:40.023Z,1001.96
2018-06-12T11:56:40.023Z,1001.96
2018-06-12T11:57:40.021Z,1001.97
2018-06-12T11:58:40.016Z,1001.91
2018-06-12T11:59:40.022Z,1001.92
2018-06-12T12:00:40.023Z,1001.90
2018-06-12T12:01:40.077Z,1001.87
2018-06-12T12:02:40.026Z,1001.86
2018-06-12T12:03:40.026Z,1001.77
2018-06-12T12:04:40.028Z,1001.73
2018-06-12T12:05:40.024Z,1001.76